Time,TemperatureF,DewpointF,PressureIn,WindDirection,WindDirectionDegrees,WindSpeedMPH,WindSpeedGustMPH,Humidity,HourlyPrecipIn,Conditions,Clouds,dailyrainin,SoftwareType,DateUTC
2013-03-08 00:00:00,22.6,18.5,30.41,North,355,0.0,0.0,84,0.00,,FEW070,0.00,VWS V14.01,2013-03-08 06:00:00,
2013-03-08 00:04:00,23.6,19.2,30.41,North,355,0.0,0.0,83,0.00,,BKN023,0.00,VWS V14.01,2013-03-08 06:04:00,
2013-03-08 00:05:00,22.7,18.6,30.41,North,355,0.0,0.0,84,0.00,,FEW070,0.00,VWS V14.01,2013-03-08 06:05:00,
2013-03-08 00:09:00,23.6,19.2,30.41,North,355,0.0,0.0,83,0.00,,BKN023,0.00,VWS V14.01,2013-03-08 06:09:00,
2013-03-08 00:10:00,22.8,18.7,30.40,North,355,0.0,0.0,84,0.00,,FEW070,0.00,VWS V14.01,2013-03-08 06:10:00,
2013-03-08 00:14:00,23.5,19.1,30.41,North,355,0.0,0.0,83,0.00,,BKN023,0.00,VWS V14.01,2013-03-08 06:14:00,
2013-03-08 00:15:00,22.7,18.6,30.40,North,355,0.0,0.0,84,0.00,,FEW070,0.00,VWS V14.01,2013-03-08 06:15:00,
2013-03-08 00:19:00,23.3,18.9,30.41,North,355,0.0,0.0,83,0.00,,BKN023,0.00,VWS V14.01,2013-03-08 06:19:00,
2013-03-08 00:20:00,23.5,19.4,30.40,North,355,1.0,3.0,84,0.00,,FEW070,0.00,VWS V14.01,2013-03-08 06:20:00,
2013-03-08 00:24:00,23.1,18.7,30.40,North,355,0.0,0.0,83,0.00,,BKN023,0.00,VWS V14.01,2013-03-08 06:24:00,
2013-03-08 00:25:00,24.5,20.1,30.40,North,355,0.0,2.0,83,0.00,,FEW070,0.00,VWS V14.01,2013-03-08 06:25:00,
2013-03-08 00:29:00,23.2,18.8,30.40,North,355,0.0,0.0,83,0.00,,BKN023,0.00,VWS V14.01,2013-03-08 06:29:00,
2013-03-08 00:30:00,25.0,20.3,30.41,North,355,0.0,0.0,82,0.00,,FEW070,0.00,VWS V14.01,2013-03-08 06:30:00,
2013-03-08 00:35:00,23.3,18.9,30.41,North,355,0.0,0.0,83,0.00,,SCT023,0.00,VWS V14.01,2013-03-08 06:35:00,
2013-03-08 00:40:00,23.3,18.9,30.41,North,355,0.0,0.0,83,0.00,,SCT023,0.00,VWS V14.01,2013-03-08 06:40:00,
2013-03-08 00:45:00,23.1,18.7,30.41,North,355,0.0,0.0,83,0.00,,SCT023,0.00,VWS V14.01,2013-03-08 06:45:00,
2013-03-08 00:50:00,22.7,18.3,30.40,North,355,0.0,0.0,83,0.00,,SCT023,0.00,VWS V14.01,2013-03-08 06:50:00,
2013-03-08 00:55:00,22.5,18.1,30.41,North,355,0.0,0.0,83,0.00,,SCT023,0.00,VWS V14.01,2013-03-08 06:55:00,
2013-03-08 01:00:00,22.7,18.6,30.41,North,355,0.0,0.0,84,0.00,,SCT023,0.00,VWS V14.01,2013-03-08 07:00:00,
2013-03-08 01:05:00,22.7,18.6,30.41,North,355,0.0,0.0,84,0.00,,FEW023,0.00,VWS V14.01,2013-03-08 07:05:00,
2013-03-08 01:10:00,22.8,18.7,30.40,North,355,0.0,0.0,84,0.00,,FEW023,0.00,VWS V14.01,2013-03-08 07:10:00,
2013-03-08 01:15:00,22.7,18.6,30.40,North,355,0.0,0.0,84,0.00,,FEW023,0.00,VWS V14.01,2013-03-08 07:15:00,
2013-03-08 01:20:00,23.8,19.7,30.40,North,355,0.0,4.0,84,0.00,,FEW023,0.00,VWS V14.01,2013-03-08 07:20:00,
2013-03-08 01:25:00,24.6,19.9,30.40,North,355,0.0,2.0,82,0.00,,FEW023,0.00,VWS V14.01,2013-03-08 07:25:00,
2013-03-08 01:30:00,25.0,20.0,30.41,North,355,0.0,0.0,81,0.00,,FEW023,0.00,VWS V14.01,2013-03-08 07:30:00,
2013-03-08 01:35:00,23.4,17.9,30.41,North,355,0.0,0.0,79,0.00,,FEW023,0.00,VWS V14.01,2013-03-08 07:35:00,
2013-03-08 01:40:00,21.8,16.9,30.41,NW,320,0.0,0.0,81,0.00,,FEW023,0.00,VWS V14.01,2013-03-08 07:40:00,
2013-03-08 01:45:00,20.4,15.8,30.42,NW,320,0.0,0.0,82,0.00,,FEW023,0.00,VWS V14.01,2013-03-08 07:45:00,
2013-03-08 01:50:00,20.0,16.2,30.41,NW,320,0.0,0.0,85,0.00,,FEW023,0.00,VWS V14.01,2013-03-08 07:50:00,
2013-03-08 01:55:00,19.8,16.6,30.42,NW,320,0.0,0.0,87,0.00,,FEW023,0.00,VWS V14.01,2013-03-08 07:55:00,
2013-03-08 02:00:00,19.7,16.7,30.43,NW,320,0.0,0.0,88,0.00,,FEW070,0.00,VWS V14.01,2013-03-08 08:00:00,
2013-03-08 02:01:00,19.8,16.6,30.42,NW,320,0.0,0.0,87,0.00,,FEW023,0.00,VWS V14.01,2013-03-08 08:01:00,
2013-03-08 02:05:00,19.7,16.7,30.43,NW,320,0.0,0.0,88,0.00,,FEW070,0.00,VWS V14.01,2013-03-08 08:05:00,
2013-03-08 02:06:00,19.9,16.7,30.42,NW,320,0.0,0.0,87,0.00,,FEW023,0.00,VWS V14.01,2013-03-08 08:06:00,
2013-03-08 02:10:00,19.7,16.7,30.43,NW,320,0.0,0.0,88,0.00,,FEW070,0.00,VWS V14.01,2013-03-08 08:10:00,
2013-03-08 02:11:00,19.9,16.7,30.42,NW,320,0.0,0.0,87,0.00,,FEW023,0.00,VWS V14.01,2013-03-08 08:11:00,
2013-03-08 02:15:00,19.7,16.7,30.43,NW,320,0.0,0.0,88,0.00,,FEW070,0.00,VWS V14.01,2013-03-08 08:15:00,
2013-03-08 02:16:00,20.0,17.0,30.42,NW,320,0.0,0.0,88,0.00,,FEW023,0.00,VWS V14.01,2013-03-08 08:16:00,
2013-03-08 02:20:00,19.6,16.6,30.43,NW,320,0.0,0.0,88,0.00,,FEW070,0.00,VWS V14.01,2013-03-08 08:20:00,
2013-03-08 02:21:00,19.9,16.7,30.43,NW,320,0.0,0.0,87,0.00,,FEW023,0.00,VWS V14.01,2013-03-08 08:21:00,
2013-03-08 02:25:00,19.6,16.6,30.43,NW,320,0.0,0.0,88,0.00,,FEW070,0.00,VWS V14.01,2013-03-08 08:25:00,
2013-03-08 02:26:00,19.8,16.6,30.43,NW,320,0.0,0.0,87,0.00,,FEW023,0.00,VWS V14.01,2013-03-08 08:26:00,
2013-03-08 02:30:00,19.9,16.9,30.42,NW,320,0.0,1.0,88,0.00,,FEW070,0.00,VWS V14.01,2013-03-08 08:30:00,
2013-03-08 02:31:00,19.8,16.8,30.43,NW,320,0.0,0.0,88,0.00,,FEW023,0.00,VWS V14.01,2013-03-08 08:31:00,
2013-03-08 02:35:00,20.2,17.2,30.42,NW,320,0.0,2.0,88,0.00,,FEW070,0.00,VWS V14.01,2013-03-08 08:35:00,
2013-03-08 02:36:00,19.9,16.9,30.43,NW,320,0.0,0.0,88,0.00,,FEW023,0.00,VWS V14.01,2013-03-08 08:36:00,
2013-03-08 02:40:00,20.5,17.5,30.42,NW,320,0.0,0.0,88,0.00,,FEW070,0.00,VWS V14.01,2013-03-08 08:40:00,
2013-03-08 02:41:00,20.0,17.0,30.43,NW,320,0.0,0.0,88,0.00,,FEW023,0.00,VWS V14.01,2013-03-08 08:41:00,
2013-03-08 02:45:00,20.7,17.5,30.42,NW,320,0.0,0.0,87,0.00,,FEW070,0.00,VWS V14.01,2013-03-08 08:45:00,
2013-03-08 02:46:00,20.2,17.2,30.43,NW,320,0.0,0.0,88,0.00,,FEW023,0.00,VWS V14.01,2013-03-08 08:46:00,
2013-03-08 02:50:00,20.7,17.5,30.42,NW,319,0.0,0.0,87,0.00,,FEW070,0.00,VWS V14.01,2013-03-08 08:50:00,
2013-03-08 02:51:00,20.1,16.9,30.43,NW,320,0.0,1.0,87,0.00,,FEW023,0.00,VWS V14.01,2013-03-08 08:51:00,
2013-03-08 02:55:00,20.7,17.5,30.41,NW,320,0.0,2.0,87,0.00,,FEW250,0.00,VWS V14.01,2013-03-08 08:55:00,
2013-03-08 02:56:00,19.8,16.6,30.43,NW,320,0.0,0.0,87,0.00,,FEW023,0.00,VWS V14.01,2013-03-08 08:56:00,
2013-03-08 03:00:00,20.9,17.4,30.41,NW,320,0.0,0.0,86,0.00,,FEW070,0.00,VWS V14.01,2013-03-08 09:00:00,
2013-03-08 03:01:00,19.7,16.7,30.43,NW,320,0.0,0.0,88,0.00,,FEW023,0.00,VWS V14.01,2013-03-08 09:01:00,
2013-03-08 03:05:00,20.8,17.3,30.41,NW,320,0.0,0.0,86,0.00,,FEW250,0.00,VWS V14.01,2013-03-08 09:05:00,
2013-03-08 03:06:00,19.7,16.7,30.43,NW,320,0.0,0.0,88,0.00,,FEW023,0.00,VWS V14.01,2013-03-08 09:06:00,
2013-03-08 03:10:00,20.6,17.1,30.41,NW,320,0.0,0.0,86,0.00,,FEW070,0.00,VWS V14.01,2013-03-08 09:10:00,
2013-03-08 03:11:00,19.7,16.7,30.43,NW,320,0.0,0.0,88,0.00,,FEW023,0.00,VWS V14.01,2013-03-08 09:11:00,
2013-03-08 03:15:00,20.4,16.9,30.42,NW,320,0.0,0.0,86,0.00,,FEW070,0.00,VWS V14.01,2013-03-08 09:15:00,
2013-03-08 03:16:00,19.6,16.6,30.43,NW,320,0.0,0.0,88,0.00,,FEW023,0.00,VWS V14.01,2013-03-08 09:16:00,
2013-03-08 03:20:00,19.9,16.1,30.42,NW,320,0.0,0.0,85,0.00,,FEW070,0.00,VWS V14.01,2013-03-08 09:20:00,
2013-03-08 03:22:00,19.5,16.5,30.43,NW,320,0.0,0.0,88,0.00,,FEW023,0.00,VWS V14.01,2013-03-08 09:22:00,
2013-03-08 03:25:00,19.6,16.1,30.42,NW,320,0.0,0.0,86,0.00,,FEW070,0.00,VWS V14.01,2013-03-08 09:25:00,
2013-03-08 03:27:00,19.8,17.1,30.42,NW,320,0.0,1.0,89,0.00,,FEW023,0.00,VWS V14.01,2013-03-08 09:27:00,
2013-03-08 03:30:00,19.1,15.6,30.42,NW,320,0.0,0.0,86,0.00,,FEW070,0.00,VWS V14.01,2013-03-08 09:30:00,
2013-03-08 03:32:00,20.0,17.0,30.42,NW,320,0.0,2.0,88,0.00,,FEW023,0.00,VWS V14.01,2013-03-08 09:32:00,
2013-03-08 03:35:00,18.9,15.7,30.42,NW,320,0.0,0.0,87,0.00,,FEW070,0.00,VWS V14.01,2013-03-08 09:35:00,
2013-03-08 03:37:00,20.3,17.3,30.42,NW,320,0.0,0.0,88,0.00,,FEW023,0.00,VWS V14.01,2013-03-08 09:37:00,
2013-03-08 03:40:00,18.5,15.3,30.42,NW,320,0.0,0.0,87,0.00,,FEW070,0.00,VWS V14.01,2013-03-08 09:40:00,
2013-03-08 03:42:00,20.7,17.7,30.42,NW,320,0.0,0.0,88,0.00,,FEW023,0.00,VWS V14.01,2013-03-08 09:42:00,
2013-03-08 03:45:00,18.2,15.2,30.42,NW,320,0.0,0.0,88,0.00,,FEW070,0.00,VWS V14.01,2013-03-08 09:45:00,
2013-03-08 03:47:00,20.7,17.5,30.42,NW,320,0.0,0.0,87,0.00,,FEW023,0.00,VWS V14.01,2013-03-08 09:47:00,
2013-03-08 03:50:00,17.6,14.4,30.43,NW,320,0.0,0.0,87,0.00,,FEW070,0.00,VWS V14.01,2013-03-08 09:50:00,
2013-03-08 03:52:00,20.8,17.5,30.42,NW,320,0.0,2.0,87,0.00,,FEW023,0.00,VWS V14.01,2013-03-08 09:52:00,
2013-03-08 03:55:00,17.6,14.9,30.42,NW,320,0.0,0.0,89,0.00,,FEW070,0.00,VWS V14.01,2013-03-08 09:55:00,
2013-03-08 03:57:00,20.8,17.3,30.41,NW,320,0.0,0.0,86,0.00,,FEW023,0.00,VWS V14.01,2013-03-08 09:57:00,
2013-03-08 04:00:00,17.9,15.2,30.43,NW,320,0.0,0.0,89,0.00,,FEW070,0.00,VWS V14.01,2013-03-08 10:00:00,
2013-03-08 04:02:00,20.8,17.3,30.41,NW,320,0.0,0.0,86,0.00,,FEW023,0.00,VWS V14.01,2013-03-08 10:02:00,
2013-03-08 04:05:00,18.0,15.3,30.43,NW,320,0.0,0.0,89,0.00,,FEW070,0.00,VWS V14.01,2013-03-08 10:05:00,
2013-03-08 04:07:00,20.7,17.2,30.42,NW,320,0.0,0.0,86,0.00,,FEW023,0.00,VWS V14.01,2013-03-08 10:07:00,
2013-03-08 04:10:00,18.2,15.5,30.43,NW,320,0.0,0.0,89,0.00,,FEW070,0.00,VWS V14.01,2013-03-08 10:10:00,
2013-03-08 04:12:00,20.5,17.0,30.41,NW,320,0.0,0.0,86,0.00,,FEW023,0.00,VWS V14.01,2013-03-08 10:12:00,
2013-03-08 04:15:00,18.0,15.1,30.43,NW,320,0.0,0.0,88,0.00,,FEW070,0.00,VWS V14.01,2013-03-08 10:15:00,
2013-03-08 04:17:00,20.2,16.4,30.41,NW,320,0.0,0.0,85,0.00,,FEW023,0.00,VWS V14.01,2013-03-08 10:17:00,
2013-03-08 04:20:00,17.7,14.8,30.43,NW,320,0.0,0.0,88,0.00,,FEW070,0.00,VWS V14.01,2013-03-08 10:20:00,
2013-03-08 04:22:00,19.7,16.2,30.42,NW,320,0.0,0.0,86,0.00,,FEW023,0.00,VWS V14.01,2013-03-08 10:22:00,
2013-03-08 04:25:00,17.6,14.9,30.43,NW,320,0.0,0.0,89,0.00,,FEW070,0.00,VWS V14.01,2013-03-08 10:25:00,
2013-03-08 04:27:00,19.3,17.9,30.42,NW,320,0.0,0.0,94,0.00,,FEW023,0.00,VWS V14.01,2013-03-08 10:27:00,
2013-03-08 04:30:00,17.8,15.1,30.44,NW,320,0.0,0.0,89,0.00,,FEW070,0.00,VWS V14.01,2013-03-08 10:30:00,
2013-03-08 04:32:00,19.0,15.8,30.42,NW,320,0.0,0.0,87,0.00,,FEW024,0.00,VWS V14.01,2013-03-08 10:32:00,
2013-03-08 04:35:00,17.9,15.2,30.44,NW,320,0.0,0.0,89,0.00,,FEW070,0.00,VWS V14.01,2013-03-08 10:35:00,
2013-03-08 04:37:00,18.6,15.4,30.42,NW,320,0.0,0.0,87,0.00,,FEW024,0.00,VWS V14.01,2013-03-08 10:37:00,
2013-03-08 04:40:00,17.9,15.2,30.44,NW,320,0.0,0.0,89,0.00,,FEW070,0.00,VWS V14.01,2013-03-08 10:40:00,
2013-03-08 04:42:00,18.3,15.1,30.42,NW,320,0.0,0.0,87,0.00,,FEW024,0.00,VWS V14.01,2013-03-08 10:42:00,
2013-03-08 04:45:00,18.1,15.7,30.44,NW,320,0.0,0.0,90,0.00,,FEW070,0.00,VWS V14.01,2013-03-08 10:45:00,
2013-03-08 04:47:00,17.7,14.5,30.42,NW,320,0.0,0.0,87,0.00,,FEW024,0.00,VWS V14.01,2013-03-08 10:47:00,
2013-03-08 04:50:00,18.3,15.6,30.44,NW,319,0.0,0.0,89,0.00,,FEW070,0.00,VWS V14.01,2013-03-08 10:50:00,
2013-03-08 04:52:00,17.6,14.9,30.42,NW,320,0.0,0.0,89,0.00,,FEW024,0.00,VWS V14.01,2013-03-08 10:52:00,
2013-03-08 04:55:00,18.3,15.6,30.44,NW,319,0.0,0.0,89,0.00,,FEW070,0.00,VWS V14.01,2013-03-08 10:55:00,
2013-03-08 04:58:00,17.8,15.1,30.42,NW,320,0.0,0.0,89,0.00,,FEW024,0.00,VWS V14.01,2013-03-08 10:58:00,
2013-03-08 05:00:00,18.1,15.1,30.44,NW,319,0.0,0.0,88,0.00,,FEW070,0.00,VWS V14.01,2013-03-08 11:00:00,
2013-03-08 05:03:00,18.0,15.3,30.43,NW,319,0.0,0.0,89,0.00,,CLR,0.00,VWS V14.01,2013-03-08 11:03:00,
2013-03-08 05:05:00,18.0,15.1,30.44,NW,320,0.0,0.0,88,0.00,,FEW070,0.00,VWS V14.01,2013-03-08 11:05:00,
2013-03-08 05:08:00,18.2,15.5,30.43,NW,320,0.0,0.0,89,0.00,,CLR,0.00,VWS V14.01,2013-03-08 11:08:00,
2013-03-08 05:10:00,18.1,15.1,30.44,NW,320,0.0,0.0,88,0.00,,FEW070,0.00,VWS V14.01,2013-03-08 11:10:00,
2013-03-08 05:13:00,18.1,15.4,30.43,NW,320,0.0,0.0,89,0.00,,CLR,0.00,VWS V14.01,2013-03-08 11:13:00,
2013-03-08 05:15:00,18.4,15.4,30.44,NW,319,0.0,0.0,88,0.00,,FEW070,0.00,VWS V14.01,2013-03-08 11:15:00,
2013-03-08 05:18:00,17.8,14.9,30.43,NW,320,0.0,0.0,88,0.00,,CLR,0.00,VWS V14.01,2013-03-08 11:18:00,
2013-03-08 05:20:00,18.6,15.6,30.44,NW,319,0.0,0.0,88,0.00,,FEW070,0.00,VWS V14.01,2013-03-08 11:20:00,
2013-03-08 05:23:00,17.6,14.7,30.43,NW,320,0.0,0.0,88,0.00,,CLR,0.00,VWS V14.01,2013-03-08 11:23:00,
2013-03-08 05:25:00,18.6,15.6,30.44,NW,319,0.0,0.0,88,0.00,,FEW070,0.00,VWS V14.01,2013-03-08 11:25:00,
2013-03-08 05:28:00,17.8,15.1,30.44,NW,320,0.0,0.0,89,0.00,,CLR,0.00,VWS V14.01,2013-03-08 11:28:00,
2013-03-08 05:30:00,18.8,15.8,30.44,NW,319,0.0,0.0,88,0.00,,FEW070,0.00,VWS V14.01,2013-03-08 11:30:00,
2013-03-08 05:33:00,17.9,15.2,30.44,NW,320,0.0,0.0,89,0.00,,CLR,0.00,VWS V14.01,2013-03-08 11:33:00,
2013-03-08 05:35:00,18.9,15.7,30.44,NW,319,0.0,0.0,87,0.00,,FEW070,0.00,VWS V14.01,2013-03-08 11:35:00,
2013-03-08 05:38:00,17.9,15.2,30.44,NW,320,0.0,0.0,89,0.00,,CLR,0.00,VWS V14.01,2013-03-08 11:38:00,
2013-03-08 05:40:00,19.0,15.8,30.44,NW,319,0.0,0.0,87,0.00,,FEW070,0.00,VWS V14.01,2013-03-08 11:40:00,
2013-03-08 05:43:00,18.1,15.4,30.44,NW,320,0.0,0.0,89,0.00,,CLR,0.00,VWS V14.01,2013-03-08 11:43:00,
2013-03-08 05:45:00,19.1,15.9,30.44,NW,319,0.0,0.0,87,0.00,,FEW070,0.00,VWS V14.01,2013-03-08 11:45:00,
2013-03-08 05:48:00,18.2,15.5,30.44,NW,320,0.0,0.0,89,0.00,,CLR,0.00,VWS V14.01,2013-03-08 11:48:00,
2013-03-08 05:50:00,19.3,16.1,30.45,NW,319,0.0,0.0,87,0.00,,FEW070,0.00,VWS V14.01,2013-03-08 11:50:00,
2013-03-08 05:53:00,18.3,15.6,30.44,NW,319,0.0,0.0,89,0.00,,CLR,0.00,VWS V14.01,2013-03-08 11:53:00,
2013-03-08 05:55:00,19.1,15.6,30.45,NW,319,0.0,0.0,86,0.00,,FEW070,0.00,VWS V14.01,2013-03-08 11:55:00,
2013-03-08 05:58:00,18.1,15.1,30.44,NW,320,0.0,0.0,88,0.00,,CLR,0.00,VWS V14.01,2013-03-08 11:58:00,
2013-03-08 06:00:00,19.3,16.1,30.45,NW,319,0.0,0.0,87,0.00,,FEW070,0.00,VWS V14.01,2013-03-08 12:00:00,
2013-03-08 06:03:00,18.0,15.1,30.44,NW,319,0.0,0.0,88,0.00,,FEW250,0.00,VWS V14.01,2013-03-08 12:03:00,
2013-03-08 06:05:00,19.1,15.6,30.45,NW,319,0.0,0.0,86,0.00,,FEW070,0.00,VWS V14.01,2013-03-08 12:05:00,
2013-03-08 06:08:00,18.1,15.1,30.44,NW,319,0.0,0.0,88,0.00,,FEW250,0.00,VWS V14.01,2013-03-08 12:08:00,
2013-03-08 06:10:00,18.8,15.3,30.45,NW,319,0.0,0.0,86,0.00,,FEW070,0.00,VWS V14.01,2013-03-08 12:10:00,
2013-03-08 06:14:00,18.4,15.4,30.44,NW,319,0.0,0.0,88,0.00,,FEW250,0.00,VWS V14.01,2013-03-08 12:14:00,
2013-03-08 06:15:00,18.7,15.5,30.45,NW,319,0.0,0.0,87,0.00,,FEW070,0.00,VWS V14.01,2013-03-08 12:15:00,
2013-03-08 06:19:00,18.6,15.6,30.44,NW,319,0.0,0.0,88,0.00,,FEW250,0.00,VWS V14.01,2013-03-08 12:19:00,
2013-03-08 06:20:00,18.8,15.6,30.45,NW,319,0.0,0.0,87,0.00,,FEW070,0.00,VWS V14.01,2013-03-08 12:20:00,
2013-03-08 06:24:00,18.6,15.6,30.44,NW,319,0.0,0.0,88,0.00,,FEW250,0.00,VWS V14.01,2013-03-08 12:24:00,
2013-03-08 06:25:00,19.1,15.9,30.45,NW,319,0.0,0.0,87,0.00,,FEW070,0.00,VWS V14.01,2013-03-08 12:25:00,
2013-03-08 06:29:00,18.8,15.8,30.44,NW,319,0.0,0.0,88,0.00,,FEW250,0.00,VWS V14.01,2013-03-08 12:29:00,
2013-03-08 06:30:00,19.6,16.6,30.45,NW,319,0.0,0.0,88,0.00,,FEW070,0.00,VWS V14.01,2013-03-08 12:30:00,
2013-03-08 06:34:00,18.9,15.7,30.44,NW,319,0.0,0.0,87,0.00,,FEW250,0.00,VWS V14.01,2013-03-08 12:34:00,
2013-03-08 06:35:00,20.2,17.0,30.45,NW,319,0.0,0.0,87,0.00,,FEW070,0.00,VWS V14.01,2013-03-08 12:35:00,
2013-03-08 06:39:00,19.1,15.9,30.44,NW,319,0.0,0.0,87,0.00,,FEW250,0.00,VWS V14.01,2013-03-08 12:39:00,
2013-03-08 06:40:00,21.0,17.8,30.45,NW,319,0.0,0.0,87,0.00,,FEW070,0.00,VWS V14.01,2013-03-08 12:40:00,
2013-03-08 06:44:00,19.1,15.9,30.44,NW,319,0.0,0.0,87,0.00,,FEW250,0.00,VWS V14.01,2013-03-08 12:44:00,
2013-03-08 06:45:00,22.1,18.6,30.45,NW,320,0.0,0.0,86,0.00,,FEW070,0.00,VWS V14.01,2013-03-08 12:45:00,
2013-03-08 06:49:00,19.3,16.1,30.45,NW,319,0.0,0.0,87,0.00,,FEW250,0.00,VWS V14.01,2013-03-08 12:49:00,
2013-03-08 06:50:00,22.7,18.9,30.45,NW,319,0.0,0.0,85,0.00,,FEW070,0.00,VWS V14.01,2013-03-08 12:50:00,
2013-03-08 06:54:00,19.1,15.6,30.45,NW,319,0.0,0.0,86,0.00,,FEW250,0.00,VWS V14.01,2013-03-08 12:54:00,
2013-03-08 06:55:00,23.3,19.2,30.45,NW,319,0.0,0.0,84,0.00,,FEW070,0.00,VWS V14.01,2013-03-08 12:55:00,
2013-03-08 06:59:00,19.3,16.1,30.45,NW,319,0.0,0.0,87,0.00,,FEW250,0.00,VWS V14.01,2013-03-08 12:59:00,
2013-03-08 07:00:00,23.9,19.8,30.45,NW,319,0.0,0.0,84,0.00,,FEW070,0.00,VWS V14.01,2013-03-08 13:00:00,
2013-03-08 07:04:00,19.1,15.6,30.45,NW,319,0.0,0.0,86,0.00,,FEW250,0.00,VWS V14.01,2013-03-08 13:04:00,
2013-03-08 07:05:00,24.8,20.4,30.45,NW,319,0.0,0.0,83,0.00,,FEW070,0.00,VWS V14.01,2013-03-08 13:05:00,
2013-03-08 07:09:00,18.8,15.3,30.45,NW,319,0.0,0.0,86,0.00,,FEW250,0.00,VWS V14.01,2013-03-08 13:09:00,
2013-03-08 07:10:00,26.5,22.3,30.45,NW,319,0.0,0.0,84,0.00,,FEW070,0.00,VWS V14.01,2013-03-08 13:10:00,
2013-03-08 07:14:00,18.7,15.5,30.45,NW,320,0.0,0.0,87,0.00,,FEW250,0.00,VWS V14.01,2013-03-08 13:14:00,
2013-03-08 07:15:00,28.0,23.5,30.45,NW,319,0.0,0.0,83,0.00,,FEW070,0.00,VWS V14.01,2013-03-08 13:15:00,
2013-03-08 07:19:00,18.8,15.6,30.45,NW,319,0.0,0.0,87,0.00,,FEW250,0.00,VWS V14.01,2013-03-08 13:19:00,
2013-03-08 07:20:00,28.6,24.1,30.45,NW,319,0.0,0.0,83,0.00,,FEW070,0.00,VWS V14.01,2013-03-08 13:20:00,
2013-03-08 07:24:00,19.1,15.9,30.45,NW,319,0.0,0.0,87,0.00,,FEW250,0.00,VWS V14.01,2013-03-08 13:24:00,
2013-03-08 07:25:00,29.2,24.7,30.45,NW,319,0.0,1.0,83,0.00,,FEW070,0.00,VWS V14.01,2013-03-08 13:25:00,
2013-03-08 07:29:00,19.7,16.7,30.45,NW,319,0.0,0.0,88,0.00,,FEW250,0.00,VWS V14.01,2013-03-08 13:29:00,
2013-03-08 07:30:00,29.5,25.0,30.45,NW,319,0.0,0.0,83,0.00,,FEW070,0.00,VWS V14.01,2013-03-08 13:30:00,
2013-03-08 07:34:00,20.2,17.0,30.45,NW,319,0.0,0.0,87,0.00,,FEW250,0.00,VWS V14.01,2013-03-08 13:34:00,
2013-03-08 07:35:00,29.4,24.9,30.45,NW,321,2.0,2.0,83,0.00,,FEW070,0.00,VWS V14.01,2013-03-08 13:35:00,
2013-03-08 07:39:00,21.2,17.9,30.45,NW,319,0.0,0.0,87,0.00,,FEW250,0.00,VWS V14.01,2013-03-08 13:39:00,
2013-03-08 07:40:00,29.4,25.2,30.45,NW,321,0.0,0.0,84,0.00,,FEW070,0.00,VWS V14.01,2013-03-08 13:40:00,
2013-03-08 07:45:00,22.1,18.6,30.45,NW,319,0.0,0.0,86,0.00,,FEW250,0.00,VWS V14.01,2013-03-08 13:45:00,
2013-03-08 07:50:00,22.8,19.0,30.45,NW,320,0.0,0.0,85,0.00,,FEW250,0.00,VWS V14.01,2013-03-08 13:50:00,
2013-03-08 07:55:00,23.3,19.2,30.45,NW,319,0.0,0.0,84,0.00,,FEW250,0.00,VWS V14.01,2013-03-08 13:55:00,
2013-03-08 08:00:00,24.0,19.9,30.45,NW,319,0.0,0.0,84,0.00,,FEW250,0.00,VWS V14.01,2013-03-08 14:00:00,
2013-03-08 08:05:00,25.0,20.9,30.45,NW,320,0.0,0.0,84,0.00,,FEW250,0.00,VWS V14.01,2013-03-08 14:05:00,
2013-03-08 08:10:00,26.9,22.4,30.45,NW,319,0.0,0.0,83,0.00,,FEW250,0.00,VWS V14.01,2013-03-08 14:10:00,
2013-03-08 08:15:00,28.1,23.6,30.45,NW,319,0.0,0.0,83,0.00,,FEW250,0.00,VWS V14.01,2013-03-08 14:15:00,
2013-03-08 08:20:00,28.7,24.2,30.45,NW,319,0.0,0.0,83,0.00,,FEW250,0.00,VWS V14.01,2013-03-08 14:20:00,
2013-03-08 08:25:00,29.2,24.7,30.45,NW,320,0.0,1.0,83,0.00,,FEW250,0.00,VWS V14.01,2013-03-08 14:25:00,
2013-03-08 08:30:00,29.5,25.0,30.45,NW,321,0.0,1.0,83,0.00,,FEW250,0.00,VWS V14.01,2013-03-08 14:30:00,
2013-03-08 08:35:00,29.4,24.9,30.45,NW,321,0.0,2.0,83,0.00,,FEW250,0.00,VWS V14.01,2013-03-08 14:35:00,
2013-03-08 08:40:00,29.5,25.3,30.45,NW,321,0.0,0.0,84,0.00,,FEW250,0.00,VWS V14.01,2013-03-08 14:40:00,
2013-03-08 08:45:00,29.4,25.5,30.45,NW,321,0.0,0.0,85,0.00,,FEW250,0.00,VWS V14.01,2013-03-08 14:45:00,
2013-03-08 08:50:00,29.4,25.5,30.45,NW,321,0.0,2.0,85,0.00,,FEW250,0.00,VWS V14.01,2013-03-08 14:50:00,
2013-03-08 08:55:00,29.4,25.5,30.45,NW,326,0.0,2.0,85,0.00,,FEW250,0.00,VWS V14.01,2013-03-08 14:55:00,
2013-03-08 09:00:00,33.7,27.9,30.45,ESE,105,0.0,4.0,79,0.00,,FEW070,0.00,VWS V14.01,2013-03-08 15:00:00,
2013-03-08 09:01:00,29.6,25.6,30.45,NW,325,0.0,0.0,85,0.00,,FEW250,0.00,VWS V14.01,2013-03-08 15:01:00,
2013-03-08 09:05:00,33.9,28.1,30.44,ESE,105,0.0,4.0,79,0.00,,FEW070,0.00,VWS V14.01,2013-03-08 15:05:00,
2013-03-08 09:06:00,29.6,25.9,30.44,NW,326,0.0,0.0,86,0.00,,FEW250,0.00,VWS V14.01,2013-03-08 15:06:00,
2013-03-08 09:10:00,33.7,27.6,30.44,ESE,111,1.0,5.0,78,0.00,,FEW070,0.00,VWS V14.01,2013-03-08 15:10:00,
2013-03-08 09:11:00,29.8,26.1,30.45,NNW,333,0.0,2.0,86,0.00,,FEW250,0.00,VWS V14.01,2013-03-08 15:11:00,
2013-03-08 09:15:00,33.7,27.9,30.45,ESE,109,0.0,5.0,79,0.00,,FEW070,0.00,VWS V14.01,2013-03-08 15:15:00,
2013-03-08 09:16:00,29.9,26.2,30.45,NNW,333,1.0,3.0,86,0.00,,FEW250,0.00,VWS V14.01,2013-03-08 15:16:00,
2013-03-08 09:20:00,34.2,28.1,30.44,SE,127,2.0,5.0,78,0.00,,FEW070,0.00,VWS V14.01,2013-03-08 15:20:00,
2013-03-08 09:21:00,30.0,26.6,30.45,NNW,333,0.0,0.0,87,0.00,,FEW250,0.00,VWS V14.01,2013-03-08 15:21:00,
2013-03-08 09:25:00,34.5,28.0,30.45,SE,144,3.0,7.0,77,0.00,,FEW070,0.00,VWS V14.01,2013-03-08 15:25:00,
2013-03-08 09:26:00,30.5,27.1,30.45,NNW,333,0.0,0.0,87,0.00,,FEW250,0.00,VWS V14.01,2013-03-08 15:26:00,
2013-03-08 09:30:00,34.3,27.9,30.44,ESE,117,3.0,10.0,77,0.00,,FEW070,0.00,VWS V14.01,2013-03-08 15:30:00,
2013-03-08 09:31:00,31.2,27.5,30.45,NNW,333,0.0,0.0,86,0.00,,FEW250,0.00,VWS V14.01,2013-03-08 15:31:00,
2013-03-08 09:35:00,34.6,27.5,30.44,SE,125,5.0,9.0,75,0.00,,FEW070,0.00,VWS V14.01,2013-03-08 15:35:00,
2013-03-08 09:36:00,31.6,27.3,30.45,NNW,333,0.0,0.0,84,0.00,,FEW250,0.00,VWS V14.01,2013-03-08 15:36:00,
2013-03-08 09:40:00,34.6,28.1,30.44,SE,125,6.0,9.0,77,0.00,,FEW070,0.00,VWS V14.01,2013-03-08 15:40:00,
2013-03-08 09:41:00,32.2,27.9,30.45,ENE,77,0.0,3.0,84,0.00,,FEW250,0.00,VWS V14.01,2013-03-08 15:41:00,
2013-03-08 09:45:00,34.8,28.3,30.45,SSE,148,7.0,10.0,77,0.00,,FEW070,0.00,VWS V14.01,2013-03-08 15:45:00,
2013-03-08 09:46:00,33.1,28.2,30.45,ENE,77,0.0,2.0,82,0.00,,FEW250,0.00,VWS V14.01,2013-03-08 15:46:00,
2013-03-08 09:50:00,34.8,28.0,30.45,ESE,111,7.0,7.0,76,0.00,,FEW070,0.00,VWS V14.01,2013-03-08 15:50:00,
2013-03-08 09:51:00,33.5,28.0,30.45,ESE,114,4.0,5.0,80,0.00,,FEW250,0.00,VWS V14.01,2013-03-08 15:51:00,
2013-03-08 09:55:00,34.7,27.9,30.45,SE,146,6.0,8.0,76,0.00,,FEW070,0.00,VWS V14.01,2013-03-08 15:55:00,
2013-03-08 09:56:00,33.6,27.8,30.45,ESE,105,3.0,3.0,79,0.00,,FEW250,0.00,VWS V14.01,2013-03-08 15:56:00,
2013-03-08 10:00:00,34.2,27.8,30.44,SE,137,8.0,10.0,77,0.00,,FEW070,0.00,VWS V14.01,2013-03-08 16:00:00,
2013-03-08 10:01:00,33.8,28.0,30.44,ESE,105,0.0,2.0,79,0.00,,SCT250,0.00,VWS V14.01,2013-03-08 16:01:00,
2013-03-08 10:05:00,34.0,27.9,30.44,SE,128,6.0,9.0,78,0.00,,FEW070,0.00,VWS V14.01,2013-03-08 16:05:00,
2013-03-08 10:06:00,33.9,27.8,30.44,ESE,111,3.0,5.0,78,0.00,,SCT250,0.00,VWS V14.01,2013-03-08 16:06:00,
2013-03-08 10:10:00,34.2,28.4,30.44,SE,133,2.0,9.0,79,0.00,,FEW070,0.00,VWS V14.01,2013-03-08 16:10:00,
2013-03-08 10:12:00,33.5,27.4,30.45,ESE,109,2.0,5.0,78,0.00,,SCT250,0.00,VWS V14.01,2013-03-08 16:12:00,
2013-03-08 10:15:00,33.8,27.7,30.44,SE,135,4.0,13.0,78,0.00,,FEW070,0.00,VWS V14.01,2013-03-08 16:15:00,
2013-03-08 10:17:00,34.0,28.2,30.45,ESE,109,0.0,2.0,79,0.00,,SCT250,0.00,VWS V14.01,2013-03-08 16:17:00,
2013-03-08 10:20:00,33.8,28.0,30.44,SE,138,4.0,11.0,79,0.00,,FEW070,0.00,VWS V14.01,2013-03-08 16:20:00,
2013-03-08 10:22:00,34.3,28.5,30.45,ESE,118,7.0,7.0,79,0.00,,SCT250,0.00,VWS V14.01,2013-03-08 16:22:00,
2013-03-08 10:25:00,33.9,28.1,30.44,ESE,104,3.0,10.0,79,0.00,,FEW070,0.00,VWS V14.01,2013-03-08 16:25:00,
2013-03-08 10:27:00,34.4,27.6,30.44,SE,134,6.0,10.0,76,0.00,,SCT250,0.00,VWS V14.01,2013-03-08 16:27:00,
2013-03-08 10:30:00,34.3,28.5,30.43,SE,126,4.0,11.0,79,0.00,,FEW070,0.00,VWS V14.01,2013-03-08 16:30:00,
2013-03-08 10:32:00,34.5,27.7,30.44,SE,130,5.0,5.0,76,0.00,,SCT250,0.00,VWS V14.01,2013-03-08 16:32:00,
2013-03-08 10:35:00,34.3,28.5,30.43,SE,132,4.0,9.0,79,0.00,,FEW070,0.00,VWS V14.01,2013-03-08 16:35:00,
2013-03-08 10:37:00,34.6,27.8,30.44,SE,128,3.0,10.0,76,0.00,,SCT250,0.00,VWS V14.01,2013-03-08 16:37:00,
2013-03-08 10:40:00,34.3,28.5,30.43,SE,139,5.0,10.0,79,0.00,,FEW070,0.00,VWS V14.01,2013-03-08 16:40:00,
2013-03-08 10:42:00,34.7,28.2,30.44,SE,126,0.0,10.0,77,0.00,,SCT250,0.00,VWS V14.01,2013-03-08 16:42:00,
2013-03-08 10:45:00,34.1,28.6,30.43,SE,132,5.0,9.0,80,0.00,,FEW250,0.00,VWS V14.01,2013-03-08 16:45:00,
2013-03-08 10:47:00,34.6,28.1,30.44,SE,134,3.0,10.0,77,0.00,,SCT250,0.00,VWS V14.01,2013-03-08 16:47:00,
2013-03-08 10:50:00,34.4,28.9,30.43,SE,126,7.0,9.0,80,0.00,,FEW070,0.00,VWS V14.01,2013-03-08 16:50:00,
2013-03-08 10:52:00,34.8,28.3,30.45,SE,137,0.0,8.0,77,0.00,,SCT250,0.00,VWS V14.01,2013-03-08 16:52:00,
2013-03-08 10:55:00,34.2,28.7,30.43,ESE,113,5.0,10.0,80,0.00,,FEW070,0.00,VWS V14.01,2013-03-08 16:55:00,
2013-03-08 10:57:00,34.5,27.7,30.44,ESE,117,8.0,9.0,76,0.00,,SCT250,0.00,VWS V14.01,2013-03-08 16:57:00,
2013-03-08 11:00:00,34.4,28.9,30.43,SE,134,6.0,11.0,80,0.00,,FEW070,0.00,VWS V14.01,2013-03-08 17:00:00,
2013-03-08 11:02:00,34.0,27.9,30.44,SE,142,6.0,10.0,78,0.00,,BKN250,0.00,VWS V14.01,2013-03-08 17:02:00,
2013-03-08 11:05:00,34.4,28.9,30.42,SE,128,7.0,12.0,80,0.00,,FEW070,0.00,VWS V14.01,2013-03-08 17:05:00,
2013-03-08 11:07:00,34.1,28.3,30.44,SE,126,1.0,10.0,79,0.00,,BKN250,0.00,VWS V14.01,2013-03-08 17:07:00,
2013-03-08 11:10:00,34.2,28.7,30.42,SE,131,3.0,10.0,80,0.00,,FEW070,0.00,VWS V14.01,2013-03-08 17:10:00,
2013-03-08 11:12:00,33.9,27.8,30.44,ESE,117,2.0,13.0,78,0.00,,BKN250,0.00,VWS V14.01,2013-03-08 17:12:00,
2013-03-08 11:15:00,34.4,29.2,30.42,SSE,166,1.0,9.0,81,0.00,,FEW070,0.00,VWS V14.01,2013-03-08 17:15:00,
2013-03-08 11:17:00,33.8,29.8,30.44,SE,132,5.0,9.0,85,0.00,,BKN250,0.00,VWS V14.01,2013-03-08 17:17:00,
2013-03-08 11:20:00,34.5,29.3,30.42,SSE,165,7.0,9.0,81,0.00,,FEW070,0.00,VWS V14.01,2013-03-08 17:20:00,
2013-03-08 11:22:00,33.9,28.1,30.44,SE,132,5.0,11.0,79,0.00,,BKN250,0.00,VWS V14.01,2013-03-08 17:22:00,
2013-03-08 11:25:00,34.8,29.6,30.42,SSE,157,2.0,9.0,81,0.00,,FEW070,0.00,VWS V14.01,2013-03-08 17:25:00,
2013-03-08 11:28:00,34.2,28.4,30.44,SE,134,5.0,11.0,79,0.00,,BKN250,0.00,VWS V14.01,2013-03-08 17:28:00,
2013-03-08 11:30:00,34.7,29.2,30.42,SE,138,4.0,10.0,80,0.00,,FEW070,0.00,VWS V14.01,2013-03-08 17:30:00,
2013-03-08 11:33:00,34.4,28.6,30.43,SE,134,7.0,9.0,79,0.00,,BKN250,0.00,VWS V14.01,2013-03-08 17:33:00,
2013-03-08 11:35:00,35.2,29.7,30.42,SE,129,3.0,7.0,80,0.00,,FEW070,0.00,VWS V14.01,2013-03-08 17:35:00,
2013-03-08 11:38:00,34.3,28.5,30.43,SE,132,7.0,11.0,79,0.00,,BKN250,0.00,VWS V14.01,2013-03-08 17:38:00,
2013-03-08 11:40:00,35.5,30.0,30.42,SE,138,6.0,7.0,80,0.00,,FEW070,0.00,VWS V14.01,2013-03-08 17:40:00,
2013-03-08 11:43:00,34.1,28.3,30.43,SE,131,3.0,9.0,79,0.00,,BKN250,0.00,VWS V14.01,2013-03-08 17:43:00,
2013-03-08 11:45:00,35.5,30.0,30.41,SSE,155,6.0,12.0,80,0.00,,FEW070,0.00,VWS V14.01,2013-03-08 17:45:00,
2013-03-08 11:48:00,34.3,28.8,30.43,ESE,121,1.0,9.0,80,0.00,,BKN250,0.00,VWS V14.01,2013-03-08 17:48:00,
2013-03-08 11:50:00,35.5,29.6,30.41,ESE,123,2.0,9.0,79,0.00,,FEW070,0.00,VWS V14.01,2013-03-08 17:50:00,
2013-03-08 11:53:00,34.3,28.5,30.43,SE,136,4.0,10.0,79,0.00,,BKN250,0.00,VWS V14.01,2013-03-08 17:53:00,
2013-03-08 11:55:00,35.5,29.6,30.41,ESE,115,3.0,8.0,79,0.00,,FEW070,0.00,VWS V14.01,2013-03-08 17:55:00,
2013-03-08 11:58:00,34.4,29.2,30.43,SE,146,6.0,9.0,81,0.00,,BKN250,0.00,VWS V14.01,2013-03-08 17:58:00,
2013-03-08 12:00:00,35.6,29.7,30.40,SE,143,1.0,7.0,79,0.00,,FEW070,0.00,VWS V14.01,2013-03-08 18:00:00,
2013-03-08 12:03:00,34.4,28.9,30.43,SE,144,6.0,12.0,80,0.00,,BKN250,0.00,VWS V14.01,2013-03-08 18:03:00,
2013-03-08 12:05:00,35.9,30.0,30.40,ESE,123,4.0,10.0,79,0.00,,FEW070,0.00,VWS V14.01,2013-03-08 18:05:00,
2013-03-08 12:08:00,34.3,28.8,30.42,SE,133,5.0,11.0,80,0.00,,BKN250,0.00,VWS V14.01,2013-03-08 18:08:00,
2013-03-08 12:10:00,35.8,29.9,30.40,SSE,157,2.0,7.0,79,0.00,,FEW070,0.00,VWS V14.01,2013-03-08 18:10:00,
2013-03-08 12:13:00,34.4,29.2,30.42,ESE,115,7.0,9.0,81,0.00,,BKN250,0.00,VWS V14.01,2013-03-08 18:13:00,
2013-03-08 12:15:00,35.8,29.9,30.39,SE,137,2.0,8.0,79,0.00,,FEW070,0.00,VWS V14.01,2013-03-08 18:15:00,
2013-03-08 12:18:00,34.5,29.0,30.42,ESE,120,7.0,9.0,80,0.00,,BKN250,0.00,VWS V14.01,2013-03-08 18:18:00,
2013-03-08 12:20:00,35.7,29.5,30.39,ESE,123,1.0,8.0,78,0.00,,FEW070,0.00,VWS V14.01,2013-03-08 18:20:00,
2013-03-08 12:23:00,34.7,29.2,30.42,SE,142,3.0,9.0,80,0.00,,BKN250,0.00,VWS V14.01,2013-03-08 18:23:00,
2013-03-08 12:25:00,35.6,29.4,30.39,SSE,159,6.0,11.0,78,0.00,,FEW070,0.00,VWS V14.01,2013-03-08 18:25:00,
2013-03-08 12:28:00,34.8,29.3,30.42,SE,136,7.0,10.0,80,0.00,,BKN250,0.00,VWS V14.01,2013-03-08 18:28:00,
2013-03-08 12:30:00,35.4,29.5,30.39,SE,129,8.0,10.0,79,0.00,,FEW070,0.00,VWS V14.01,2013-03-08 18:30:00,
2013-03-08 12:33:00,35.1,29.9,30.42,SSE,153,0.0,7.0,81,0.00,,BKN250,0.00,VWS V14.01,2013-03-08 18:33:00,
2013-03-08 12:35:00,35.4,29.9,30.39,SSE,150,1.0,9.0,80,0.00,,FEW070,0.00,VWS V14.01,2013-03-08 18:35:00,
2013-03-08 12:38:00,35.5,30.0,30.42,ESE,103,2.0,7.0,80,0.00,,BKN250,0.00,VWS V14.01,2013-03-08 18:38:00,
2013-03-08 12:40:00,35.3,29.8,30.39,SE,135,5.0,10.0,80,0.00,,FEW070,0.00,VWS V14.01,2013-03-08 18:40:00,
2013-03-08 12:43:00,35.5,30.0,30.42,ESE,121,2.0,12.0,80,0.00,,BKN250,0.00,VWS V14.01,2013-03-08 18:43:00,
2013-03-08 12:45:00,35.1,29.9,30.39,SSE,150,2.0,12.0,81,0.00,,FEW070,0.00,VWS V14.01,2013-03-08 18:45:00,
2013-03-08 12:48:00,35.5,29.6,30.41,South,177,6.0,9.0,79,0.00,,BKN250,0.00,VWS V14.01,2013-03-08 18:48:00,
2013-03-08 12:50:00,35.1,29.6,30.39,North,360,7.0,9.0,80,0.00,,FEW070,0.00,VWS V14.01,2013-03-08 18:50:00,
2013-03-08 12:54:00,35.5,29.6,30.41,SE,132,0.0,8.0,79,0.00,,BKN250,0.00,VWS V14.01,2013-03-08 18:54:00,
2013-03-08 12:55:00,35.0,29.8,30.39,SE,142,5.0,9.0,81,0.00,,FEW070,0.00,VWS V14.01,2013-03-08 18:55:00,
2013-03-08 12:59:00,35.6,29.7,30.40,SSE,164,3.0,7.0,79,0.00,,BKN250,0.00,VWS V14.01,2013-03-08 18:59:00,
2013-03-08 13:00:00,35.0,29.8,30.39,SSE,161,6.0,10.0,81,0.00,,FEW070,0.00,VWS V14.01,2013-03-08 19:00:00,
2013-03-08 13:04:00,35.9,30.0,30.40,SE,134,2.0,10.0,79,0.00,,SCT250,0.00,VWS V14.01,2013-03-08 19:04:00,
2013-03-08 13:05:00,34.9,29.7,30.38,South,170,5.0,8.0,81,0.00,,FEW070,0.00,VWS V14.01,2013-03-08 19:05:00,
2013-03-08 13:09:00,35.8,29.9,30.40,SSE,157,1.0,7.0,79,0.00,,SCT250,0.00,VWS V14.01,2013-03-08 19:09:00,
2013-03-08 13:10:00,34.8,29.6,30.38,South,175,6.0,10.0,81,0.00,,FEW070,0.00,VWS V14.01,2013-03-08 19:10:00,
2013-03-08 13:14:00,35.8,29.9,30.39,SE,137,4.0,8.0,79,0.00,,SCT250,0.00,VWS V14.01,2013-03-08 19:14:00,
2013-03-08 13:15:00,34.5,29.3,30.38,SE,143,5.0,12.0,81,0.00,,FEW070,0.00,VWS V14.01,2013-03-08 19:15:00,
2013-03-08 13:19:00,35.7,29.5,30.39,ESE,123,1.0,8.0,78,0.00,,SCT250,0.00,VWS V14.01,2013-03-08 19:19:00,
2013-03-08 13:20:00,34.7,29.8,30.38,SE,143,2.0,9.0,82,0.00,,FEW070,0.00,VWS V14.01,2013-03-08 19:20:00,
2013-03-08 13:24:00,35.6,29.4,30.39,SSE,159,6.0,11.0,78,0.00,,SCT250,0.00,VWS V14.01,2013-03-08 19:24:00,
2013-03-08 13:25:00,34.8,29.9,30.38,SSE,155,1.0,7.0,82,0.00,,FEW070,0.00,VWS V14.01,2013-03-08 19:25:00,
2013-03-08 13:29:00,35.4,29.5,30.39,SE,129,8.0,10.0,79,0.00,,SCT250,0.00,VWS V14.01,2013-03-08 19:29:00,
2013-03-08 13:30:00,34.8,29.9,30.38,SSE,163,4.0,9.0,82,0.00,,FEW070,0.00,VWS V14.01,2013-03-08 19:30:00,
2013-03-08 13:34:00,35.4,29.9,30.39,SSE,150,1.0,9.0,80,0.00,,SCT250,0.00,VWS V14.01,2013-03-08 19:34:00,
2013-03-08 13:35:00,34.6,29.7,30.38,SSE,151,2.0,10.0,82,0.00,,FEW070,0.00,VWS V14.01,2013-03-08 19:35:00,
2013-03-08 13:39:00,35.3,29.8,30.39,SE,135,5.0,10.0,80,0.00,,SCT250,0.00,VWS V14.01,2013-03-08 19:39:00,
2013-03-08 13:40:00,34.4,29.5,30.37,SSE,147,4.0,13.0,82,0.00,,FEW070,0.00,VWS V14.01,2013-03-08 19:40:00,
2013-03-08 13:44:00,35.1,29.9,30.39,SSE,150,2.0,12.0,81,0.00,,SCT250,0.00,VWS V14.01,2013-03-08 19:44:00,
2013-03-08 13:45:00,34.2,29.6,30.37,ESE,117,7.0,9.0,83,0.00,,FEW070,0.00,VWS V14.01,2013-03-08 19:45:00,
2013-03-08 13:49:00,35.1,29.6,30.39,North,360,7.0,9.0,80,0.00,,SCT250,0.00,VWS V14.01,2013-03-08 19:49:00,
2013-03-08 13:50:00,34.3,29.7,30.37,SE,130,8.0,9.0,83,0.00,,FEW070,0.00,VWS V14.01,2013-03-08 19:50:00,
2013-03-08 13:54:00,35.0,29.8,30.39,SE,142,5.0,9.0,81,0.00,,SCT250,0.00,VWS V14.01,2013-03-08 19:54:00,
2013-03-08 13:55:00,34.2,29.9,30.37,SE,146,5.0,8.0,84,0.00,,FEW070,0.00,VWS V14.01,2013-03-08 19:55:00,
2013-03-08 13:59:00,35.0,29.8,30.39,SSE,161,6.0,10.0,81,0.00,,SCT250,0.00,VWS V14.01,2013-03-08 19:59:00,
2013-03-08 14:00:00,34.3,30.0,30.37,SE,124,2.0,10.0,84,0.00,,FEW070,0.00,VWS V14.01,2013-03-08 20:00:00,
2013-03-08 14:04:00,34.9,29.7,30.38,South,170,5.0,8.0,81,0.00,,SCT250,0.00,VWS V14.01,2013-03-08 20:04:00,
2013-03-08 14:05:00,34.3,30.0,30.37,SSE,165,6.0,8.0,84,0.00,,FEW070,0.00,VWS V14.01,2013-03-08 20:05:00,
2013-03-08 14:09:00,34.8,29.6,30.38,South,175,6.0,10.0,81,0.00,,SCT250,0.00,VWS V14.01,2013-03-08 20:09:00,
2013-03-08 14:10:00,34.2,30.2,30.37,SSE,161,6.0,12.0,85,0.00,,FEW070,0.00,VWS V14.01,2013-03-08 20:10:00,
2013-03-08 14:14:00,34.5,29.3,30.38,SE,143,5.0,12.0,81,0.00,,SCT250,0.00,VWS V14.01,2013-03-08 20:14:00,
2013-03-08 14:15:00,34.0,30.0,30.37,SE,146,1.0,11.0,85,0.00,,FEW070,0.00,VWS V14.01,2013-03-08 20:15:00,
2013-03-08 14:19:00,34.7,29.8,30.38,SE,143,2.0,9.0,82,0.00,,SCT250,0.00,VWS V14.01,2013-03-08 20:19:00,
2013-03-08 14:20:00,34.0,30.0,30.36,SSE,156,5.0,11.0,85,0.00,,FEW070,0.00,VWS V14.01,2013-03-08 20:20:00,
2013-03-08 14:24:00,34.8,29.9,30.38,SSE,155,1.0,7.0,82,0.00,,SCT250,0.00,VWS V14.01,2013-03-08 20:24:00,
2013-03-08 14:25:00,33.8,29.8,30.36,SE,144,6.0,13.0,85,0.00,,FEW070,0.00,VWS V14.01,2013-03-08 20:25:00,
2013-03-08 14:29:00,34.8,29.9,30.38,SSE,163,4.0,9.0,82,0.00,,SCT250,0.00,VWS V14.01,2013-03-08 20:29:00,
2013-03-08 14:30:00,33.7,29.7,30.36,SE,138,11.0,13.0,85,0.00,,FEW070,0.00,VWS V14.01,2013-03-08 20:30:00,
2013-03-08 14:35:00,34.6,29.7,30.38,SSE,164,4.0,9.0,82,0.00,,SCT250,0.00,VWS V14.01,2013-03-08 20:35:00,
2013-03-08 14:40:00,34.4,29.5,30.37,SSE,148,5.0,13.0,82,0.00,,SCT250,0.00,VWS V14.01,2013-03-08 20:40:00,
2013-03-08 14:45:00,34.2,29.6,30.37,SSE,150,3.0,10.0,83,0.00,,SCT250,0.00,VWS V14.01,2013-03-08 20:45:00,
2013-03-08 14:50:00,34.2,29.6,30.37,South,171,1.0,11.0,83,0.00,,SCT250,0.00,VWS V14.01,2013-03-08 20:50:00,
2013-03-08 14:55:00,34.2,29.9,30.37,SE,137,8.0,10.0,84,0.00,,SCT250,0.00,VWS V14.01,2013-03-08 20:55:00,
2013-03-08 15:00:00,34.3,30.0,30.37,SSE,163,3.0,8.0,84,0.00,,SCT250,0.00,VWS V14.01,2013-03-08 21:00:00,
2013-03-08 15:05:00,34.4,30.4,30.37,SE,131,4.0,8.0,85,0.00,,FEW250,0.00,VWS V14.01,2013-03-08 21:05:00,
2013-03-08 15:10:00,34.1,30.1,30.37,SSE,155,4.0,11.0,85,0.00,,FEW250,0.00,VWS V14.01,2013-03-08 21:10:00,
2013-03-08 15:15:00,34.0,30.3,30.36,SE,134,3.0,11.0,86,0.00,,FEW250,0.00,VWS V14.01,2013-03-08 21:15:00,
2013-03-08 15:20:00,34.0,30.0,30.36,SSE,150,8.0,11.0,85,0.00,,FEW250,0.00,VWS V14.01,2013-03-08 21:20:00,
2013-03-08 15:25:00,33.4,29.7,30.35,SSE,162,5.0,12.0,86,0.00,,FEW070,0.00,VWS V14.01,2013-03-08 21:25:00,
2013-03-08 15:26:00,33.8,29.8,30.36,SSE,154,4.0,13.0,85,0.00,,FEW250,0.00,VWS V14.01,2013-03-08 21:26:00,
2013-03-08 15:30:00,33.3,29.6,30.35,SE,137,6.0,10.0,86,0.00,,FEW070,0.00,VWS V14.01,2013-03-08 21:30:00,
2013-03-08 15:31:00,33.7,29.7,30.36,SE,146,8.0,12.0,85,0.00,,FEW250,0.00,VWS V14.01,2013-03-08 21:31:00,
2013-03-08 15:35:00,33.3,29.9,30.35,SE,130,5.0,10.0,87,0.00,,FEW070,0.00,VWS V14.01,2013-03-08 21:35:00,
2013-03-08 15:36:00,33.7,29.7,30.37,SE,125,8.0,13.0,85,0.00,,FEW250,0.00,VWS V14.01,2013-03-08 21:36:00,
2013-03-08 15:40:00,33.3,29.9,30.35,SE,141,6.0,9.0,87,0.00,,FEW070,0.00,VWS V14.01,2013-03-08 21:40:00,
2013-03-08 15:41:00,33.7,29.7,30.37,SE,146,2.0,11.0,85,0.00,,FEW250,0.00,VWS V14.01,2013-03-08 21:41:00,
2013-03-08 15:45:00,33.3,29.9,30.35,SE,138,3.0,11.0,87,0.00,,FEW070,0.00,VWS V14.01,2013-03-08 21:45:00,
2013-03-08 15:46:00,33.8,29.8,30.37,SSE,154,8.0,11.0,85,0.00,,FEW250,0.00,VWS V14.01,2013-03-08 21:46:00,
2013-03-08 15:50:00,33.4,30.0,30.35,SE,141,3.0,9.0,87,0.00,,FEW070,0.00,VWS V14.01,2013-03-08 21:50:00,
2013-03-08 15:51:00,33.6,29.6,30.36,SSE,156,9.0,12.0,85,0.00,,FEW250,0.00,VWS V14.01,2013-03-08 21:51:00,
2013-03-08 15:55:00,33.2,29.8,30.35,SE,135,4.0,9.0,87,0.00,,FEW070,0.00,VWS V14.01,2013-03-08 21:55:00,
2013-03-08 15:56:00,33.6,29.9,30.36,SE,129,5.0,11.0,86,0.00,,FEW250,0.00,VWS V14.01,2013-03-08 21:56:00,
2013-03-08 16:00:00,33.2,29.8,30.35,ESE,111,3.0,8.0,87,0.00,,FEW070,0.00,VWS V14.01,2013-03-08 22:00:00,
2013-03-08 16:01:00,33.5,29.5,30.36,SSE,153,6.0,12.0,85,0.00,,BKN250,0.00,VWS V14.01,2013-03-08 22:01:00,
2013-03-08 16:05:00,33.2,30.0,30.34,SE,136,1.0,7.0,88,0.00,,FEW070,0.00,VWS V14.01,2013-03-08 22:05:00,
2013-03-08 16:06:00,33.5,29.5,30.36,SSE,161,3.0,12.0,85,0.00,,BKN250,0.00,VWS V14.01,2013-03-08 22:06:00,
2013-03-08 16:10:00,33.2,30.0,30.35,SSE,155,2.0,7.0,88,0.00,,FEW070,0.00,VWS V14.01,2013-03-08 22:10:00,
2013-03-08 16:12:00,33.6,29.6,30.36,SSE,159,3.0,11.0,85,0.00,,BKN250,0.00,VWS V14.01,2013-03-08 22:12:00,
2013-03-08 16:15:00,33.0,29.8,30.34,SSE,148,3.0,8.0,88,0.00,,FEW070,0.00,VWS V14.01,2013-03-08 22:15:00,
2013-03-08 16:17:00,33.4,29.7,30.36,SE,135,3.0,11.0,86,0.00,,BKN250,0.00,VWS V14.01,2013-03-08 22:17:00,
2013-03-08 16:20:00,33.0,29.8,30.35,SE,138,3.0,7.0,88,0.00,,FEW070,0.00,VWS V14.01,2013-03-08 22:20:00,
2013-03-08 16:22:00,33.4,29.7,30.35,SE,146,4.0,9.0,86,0.00,,BKN250,0.00,VWS V14.01,2013-03-08 22:22:00,
2013-03-08 16:25:00,32.8,29.6,30.35,SE,140,2.0,7.0,88,0.00,,FEW070,0.00,VWS V14.01,2013-03-08 22:25:00,
2013-03-08 16:27:00,33.3,29.6,30.35,SE,140,4.0,12.0,86,0.00,,BKN250,0.00,VWS V14.01,2013-03-08 22:27:00,
2013-03-08 16:30:00,32.7,29.8,30.36,SE,141,6.0,6.0,89,0.00,,FEW070,0.00,VWS V14.01,2013-03-08 22:30:00,
2013-03-08 16:32:00,33.3,29.9,30.35,SSE,162,7.0,10.0,87,0.00,,BKN250,0.00,VWS V14.01,2013-03-08 22:32:00,
2013-03-08 16:35:00,32.6,29.7,30.36,SE,138,3.0,8.0,89,0.00,,FEW070,0.00,VWS V14.01,2013-03-08 22:35:00,
2013-03-08 16:37:00,33.3,29.9,30.35,South,173,4.0,9.0,87,0.00,,BKN250,0.00,VWS V14.01,2013-03-08 22:37:00,
2013-03-08 16:40:00,32.6,29.5,30.36,SE,140,4.0,6.0,88,0.00,,FEW070,0.00,VWS V14.01,2013-03-08 22:40:00,
2013-03-08 16:42:00,33.3,29.9,30.35,SE,135,3.0,9.0,87,0.00,,BKN250,0.00,VWS V14.01,2013-03-08 22:42:00,
2013-03-08 16:45:00,32.6,29.2,30.36,SSE,167,4.0,6.0,87,0.00,,FEW070,0.00,VWS V14.01,2013-03-08 22:45:00,
2013-03-08 16:47:00,33.3,29.9,30.35,SSE,165,3.0,11.0,87,0.00,,BKN250,0.00,VWS V14.01,2013-03-08 22:47:00,
2013-03-08 16:50:00,32.5,29.1,30.36,SE,142,3.0,5.0,87,0.00,,FEW070,0.00,VWS V14.01,2013-03-08 22:50:00,
2013-03-08 16:52:00,33.3,29.9,30.35,SE,144,4.0,9.0,87,0.00,,BKN250,0.00,VWS V14.01,2013-03-08 22:52:00,
2013-03-08 16:55:00,32.5,28.8,30.35,SSE,148,5.0,10.0,86,0.00,,FEW070,0.00,VWS V14.01,2013-03-08 22:55:00,
2013-03-08 16:57:00,33.2,29.8,30.35,SE,135,2.0,8.0,87,0.00,,BKN250,0.00,VWS V14.01,2013-03-08 22:57:00,
2013-03-08 17:00:00,32.5,28.8,30.36,SSE,160,2.0,6.0,86,0.00,,FEW070,0.00,VWS V14.01,2013-03-08 23:00:00,
2013-03-08 17:02:00,33.2,30.0,30.35,SSE,165,3.0,7.0,88,0.00,,BKN250,0.00,VWS V14.01,2013-03-08 23:02:00,
2013-03-08 17:05:00,32.5,28.5,30.36,South,175,2.0,6.0,85,0.00,,FEW070,0.00,VWS V14.01,2013-03-08 23:05:00,
2013-03-08 17:07:00,33.2,30.0,30.34,SE,136,3.0,7.0,88,0.00,,BKN250,0.00,VWS V14.01,2013-03-08 23:07:00,
2013-03-08 17:10:00,32.5,28.5,30.36,South,172,2.0,6.0,85,0.00,,FEW070,0.00,VWS V14.01,2013-03-08 23:10:00,
2013-03-08 17:12:00,33.0,29.8,30.35,SSE,153,2.0,8.0,88,0.00,,BKN250,0.00,VWS V14.01,2013-03-08 23:12:00,
2013-03-08 17:15:00,32.5,28.5,30.36,SSE,167,2.0,8.0,85,0.00,,FEW070,0.00,VWS V14.01,2013-03-08 23:15:00,
2013-03-08 17:17:00,33.0,29.8,30.35,SE,146,0.0,7.0,88,0.00,,BKN250,0.00,VWS V14.01,2013-03-08 23:17:00,
2013-03-08 17:20:00,32.5,28.5,30.36,SSE,165,3.0,8.0,85,0.00,,FEW070,0.00,VWS V14.01,2013-03-08 23:20:00,
2013-03-08 17:22:00,32.9,29.7,30.35,SE,140,3.0,8.0,88,0.00,,BKN250,0.00,VWS V14.01,2013-03-08 23:22:00,
2013-03-08 17:25:00,32.5,28.5,30.36,South,182,3.0,7.0,85,0.00,,FEW070,0.00,VWS V14.01,2013-03-08 23:25:00,
2013-03-08 17:27:00,32.7,29.8,30.36,SE,146,2.0,6.0,89,0.00,,BKN250,0.00,VWS V14.01,2013-03-08 23:27:00,
2013-03-08 17:30:00,32.4,28.4,30.36,South,178,3.0,6.0,85,0.00,,FEW070,0.00,VWS V14.01,2013-03-08 23:30:00,
2013-03-08 17:33:00,32.6,29.7,30.36,SE,143,3.0,6.0,89,0.00,,BKN250,0.00,VWS V14.01,2013-03-08 23:33:00,
2013-03-08 17:35:00,32.5,28.5,30.37,SSE,161,3.0,7.0,85,0.00,,FEW070,0.00,VWS V14.01,2013-03-08 23:35:00,
2013-03-08 17:38:00,32.6,29.5,30.36,SE,143,2.0,8.0,88,0.00,,BKN250,0.00,VWS V14.01,2013-03-08 23:38:00,
2013-03-08 17:40:00,32.4,28.4,30.36,SSE,166,2.0,5.0,85,0.00,,FEW070,0.00,VWS V14.01,2013-03-08 23:40:00,
2013-03-08 17:43:00,32.6,29.2,30.36,SSE,161,2.0,6.0,87,0.00,,BKN250,0.00,VWS V14.01,2013-03-08 23:43:00,
2013-03-08 17:45:00,32.3,28.3,30.36,South,169,2.0,7.0,85,0.00,,FEW070,0.00,VWS V14.01,2013-03-08 23:45:00,
2013-03-08 17:48:00,32.5,29.1,30.36,SSE,168,1.0,5.0,87,0.00,,BKN250,0.00,VWS V14.01,2013-03-08 23:48:00,
2013-03-08 17:50:00,32.3,28.3,30.36,South,172,1.0,4.0,85,0.00,,FEW070,0.00,VWS V14.01,2013-03-08 23:50:00,
2013-03-08 17:53:00,32.5,28.8,30.36,South,180,3.0,5.0,86,0.00,,BKN250,0.00,VWS V14.01,2013-03-08 23:53:00,
2013-03-08 17:55:00,32.3,28.3,30.36,SE,144,2.0,4.0,85,0.00,,FEW070,0.00,VWS V14.01,2013-03-08 23:55:00,
2013-03-08 17:58:00,32.5,28.8,30.36,SSE,161,2.0,6.0,86,0.00,,BKN250,0.00,VWS V14.01,2013-03-08 23:58:00,
2013-03-08 18:00:00,32.3,28.3,30.36,SSE,161,2.0,5.0,85,0.00,,FEW070,0.00,VWS V14.01,2013-03-09 00:00:00,
2013-03-08 18:03:00,32.5,28.8,30.36,South,175,2.0,6.0,86,0.00,,BKN250,0.00,VWS V14.01,2013-03-09 00:03:00,
2013-03-08 18:05:00,32.4,28.4,30.36,SSE,157,3.0,4.0,85,0.00,,FEW070,0.00,VWS V14.01,2013-03-09 00:05:00,
2013-03-08 18:08:00,32.5,28.5,30.36,South,174,3.0,4.0,85,0.00,,BKN250,0.00,VWS V14.01,2013-03-09 00:08:00,
2013-03-08 18:10:00,32.4,28.1,30.36,SSE,155,2.0,4.0,84,0.00,,FEW070,0.00,VWS V14.01,2013-03-09 00:10:00,
2013-03-08 18:13:00,32.5,28.5,30.36,South,169,5.0,8.0,85,0.00,,BKN250,0.00,VWS V14.01,2013-03-09 00:13:00,
2013-03-08 18:15:00,32.4,28.1,30.35,SSE,160,1.0,3.0,84,0.00,,FEW070,0.00,VWS V14.01,2013-03-09 00:15:00,
2013-03-08 18:18:00,32.5,28.5,30.36,SSE,165,8.0,8.0,85,0.00,,BKN250,0.00,VWS V14.01,2013-03-09 00:18:00,
2013-03-08 18:20:00,32.4,28.1,30.35,SE,136,3.0,5.0,84,0.00,,FEW070,0.00,VWS V14.01,2013-03-09 00:20:00,
2013-03-08 18:23:00,32.5,28.5,30.36,South,171,1.0,7.0,85,0.00,,BKN250,0.00,VWS V14.01,2013-03-09 00:23:00,
2013-03-08 18:25:00,32.4,28.1,30.35,South,180,2.0,7.0,84,0.00,,FEW070,0.00,VWS V14.01,2013-03-09 00:25:00,
2013-03-08 18:28:00,32.4,28.4,30.37,South,179,2.0,6.0,85,0.00,,BKN250,0.00,VWS V14.01,2013-03-09 00:28:00,
2013-03-08 18:30:00,32.5,28.2,30.35,South,171,2.0,4.0,84,0.00,,FEW070,0.00,VWS V14.01,2013-03-09 00:30:00,
2013-03-08 18:33:00,32.5,28.5,30.36,South,183,3.0,7.0,85,0.00,,BKN250,0.00,VWS V14.01,2013-03-09 00:33:00,
2013-03-08 18:35:00,32.5,28.2,30.35,SSE,167,3.0,4.0,84,0.00,,FEW070,0.00,VWS V14.01,2013-03-09 00:35:00,
2013-03-08 18:38:00,32.4,28.4,30.36,SSE,166,1.0,5.0,85,0.00,,BKN250,0.00,VWS V14.01,2013-03-09 00:38:00,
2013-03-08 18:40:00,32.5,28.2,30.35,SSE,163,0.0,5.0,84,0.00,,FEW070,0.00,VWS V14.01,2013-03-09 00:40:00,
2013-03-08 18:44:00,32.3,28.3,30.36,South,169,2.0,7.0,85,0.00,,BKN250,0.00,VWS V14.01,2013-03-09 00:44:00,
2013-03-08 18:45:00,32.5,28.2,30.34,SSE,163,3.0,5.0,84,0.00,,FEW070,0.00,VWS V14.01,2013-03-09 00:45:00,
2013-03-08 18:49:00,32.3,28.3,30.36,South,173,4.0,4.0,85,0.00,,BKN250,0.00,VWS V14.01,2013-03-09 00:49:00,
2013-03-08 18:50:00,32.5,28.2,30.34,SSE,159,3.0,5.0,84,0.00,,FEW070,0.00,VWS V14.01,2013-03-09 00:50:00,
2013-03-08 18:54:00,32.3,28.3,30.36,SE,144,3.0,4.0,85,0.00,,BKN250,0.00,VWS V14.01,2013-03-09 00:54:00,
2013-03-08 18:55:00,32.5,28.2,30.34,SSE,150,3.0,5.0,84,0.00,,FEW070,0.00,VWS V14.01,2013-03-09 00:55:00,
2013-03-08 18:59:00,32.3,28.3,30.36,SSE,161,3.0,5.0,85,0.00,,BKN250,0.00,VWS V14.01,2013-03-09 00:59:00,
2013-03-08 19:00:00,32.6,28.0,30.34,SSE,159,2.0,6.0,83,0.00,,FEW070,0.00,VWS V14.01,2013-03-09 01:00:00,
2013-03-08 19:04:00,32.4,28.4,30.36,SSE,151,3.0,4.0,85,0.00,,BKN250,0.00,VWS V14.01,2013-03-09 01:04:00,
2013-03-08 19:05:00,32.7,28.1,30.34,South,170,3.0,7.0,83,0.00,,FEW070,0.00,VWS V14.01,2013-03-09 01:05:00,
2013-03-08 19:09:00,32.4,28.1,30.36,SSE,155,2.0,4.0,84,0.00,,BKN250,0.00,VWS V14.01,2013-03-09 01:09:00,
2013-03-08 19:10:00,32.7,28.1,30.34,South,176,3.0,10.0,83,0.00,,FEW070,0.00,VWS V14.01,2013-03-09 01:10:00,
2013-03-08 19:14:00,32.4,28.1,30.35,SSE,160,1.0,3.0,84,0.00,,BKN250,0.00,VWS V14.01,2013-03-09 01:14:00,
2013-03-08 19:15:00,32.6,28.3,30.34,South,177,4.0,10.0,84,0.00,,FEW070,0.00,VWS V14.01,2013-03-09 01:15:00,
2013-03-08 19:19:00,32.4,28.1,30.35,SE,136,3.0,5.0,84,0.00,,BKN250,0.00,VWS V14.01,2013-03-09 01:19:00,
2013-03-08 19:20:00,32.5,28.2,30.34,South,180,6.0,10.0,84,0.00,,FEW070,0.00,VWS V14.01,2013-03-09 01:20:00,
2013-03-08 19:24:00,32.4,28.1,30.35,South,180,2.0,7.0,84,0.00,,BKN250,0.00,VWS V14.01,2013-03-09 01:24:00,
2013-03-08 19:25:00,32.5,28.5,30.34,South,189,3.0,9.0,85,0.00,,FEW070,0.00,VWS V14.01,2013-03-09 01:25:00,
2013-03-08 19:29:00,32.5,28.2,30.35,South,171,2.0,4.0,84,0.00,,BKN250,0.00,VWS V14.01,2013-03-09 01:29:00,
2013-03-08 19:30:00,32.4,28.4,30.34,South,175,3.0,7.0,85,0.00,,FEW070,0.00,VWS V14.01,2013-03-09 01:30:00,
2013-03-08 19:34:00,32.5,28.2,30.35,SSE,167,3.0,4.0,84,0.00,,BKN250,0.00,VWS V14.01,2013-03-09 01:34:00,
2013-03-08 19:35:00,32.3,28.3,30.34,SSW,194,3.0,5.0,85,0.00,,FEW070,0.00,VWS V14.01,2013-03-09 01:35:00,
2013-03-08 19:39:00,32.5,28.2,30.34,SSE,163,0.0,4.0,84,0.00,,BKN250,0.00,VWS V14.01,2013-03-09 01:39:00,
2013-03-08 19:40:00,32.4,28.1,30.34,South,182,5.0,5.0,84,0.00,,FEW070,0.00,VWS V14.01,2013-03-09 01:40:00,
2013-03-08 19:45:00,32.5,28.2,30.34,SSE,161,2.0,5.0,84,0.00,,BKN250,0.00,VWS V14.01,2013-03-09 01:45:00,
2013-03-08 19:50:00,32.5,28.2,30.34,SSE,160,2.0,5.0,84,0.00,,BKN250,0.00,VWS V14.01,2013-03-09 01:50:00,
2013-03-08 19:55:00,32.6,28.3,30.34,SSE,150,2.0,5.0,84,0.00,,BKN250,0.00,VWS V14.01,2013-03-09 01:55:00,
2013-03-08 20:00:00,32.6,28.0,30.34,SSE,162,3.0,6.0,83,0.00,,BKN250,0.00,VWS V14.01,2013-03-09 02:00:00,
2013-03-08 20:05:00,32.7,28.1,30.34,South,182,5.0,7.0,83,0.00,,SCT250,0.00,VWS V14.01,2013-03-09 02:05:00,
2013-03-08 20:10:00,32.7,28.1,30.34,South,177,4.0,10.0,83,0.00,,SCT250,0.00,VWS V14.01,2013-03-09 02:10:00,
2013-03-08 20:15:00,32.7,28.4,30.34,South,170,3.0,10.0,84,0.00,,SCT250,0.00,VWS V14.01,2013-03-09 02:15:00,
2013-03-08 20:20:00,32.5,28.2,30.34,North,360,7.0,10.0,84,0.00,,SCT250,0.00,VWS V14.01,2013-03-09 02:20:00,
2013-03-08 20:25:00,32.5,28.5,30.34,SSW,192,3.0,9.0,85,0.00,,SCT250,0.00,VWS V14.01,2013-03-09 02:25:00,
2013-03-08 20:30:00,32.3,28.3,30.34,South,173,5.0,7.0,85,0.00,,SCT250,0.00,VWS V14.01,2013-03-09 02:30:00,
2013-03-08 20:35:00,32.3,28.3,30.34,South,191,4.0,5.0,85,0.00,,SCT250,0.00,VWS V14.01,2013-03-09 02:35:00,
2013-03-08 20:40:00,32.3,28.0,30.34,South,182,1.0,5.0,84,0.00,,SCT250,0.00,VWS V14.01,2013-03-09 02:40:00,
2013-03-08 20:45:00,32.3,28.0,30.34,South,182,0.0,3.0,84,0.00,,SCT250,0.00,VWS V14.01,2013-03-09 02:45:00,
2013-03-08 20:50:00,32.3,28.0,30.34,South,182,0.0,3.0,84,0.00,,SCT250,0.00,VWS V14.01,2013-03-09 02:50:00,
2013-03-08 20:55:00,32.3,28.0,30.33,South,178,2.0,5.0,84,0.00,,SCT250,0.00,VWS V14.01,2013-03-09 02:55:00,
2013-03-08 21:00:00,32.3,28.0,30.33,South,184,2.0,4.0,84,0.00,,SCT250,0.00,VWS V14.01,2013-03-09 03:00:00,
2013-03-08 21:05:00,32.6,28.9,30.32,SE,135,1.0,3.0,86,0.00,,FEW070,0.00,VWS V14.01,2013-03-09 03:05:00,
2013-03-08 21:06:00,32.4,28.1,30.33,South,182,2.0,4.0,84,0.00,,FEW250,0.00,VWS V14.01,2013-03-09 03:06:00,
2013-03-08 21:10:00,32.6,28.6,30.32,SE,137,0.0,3.0,85,0.00,,FEW070,0.00,VWS V14.01,2013-03-09 03:10:00,
2013-03-08 21:11:00,32.4,28.1,30.33,South,187,0.0,5.0,84,0.00,,FEW250,0.00,VWS V14.01,2013-03-09 03:11:00,
2013-03-08 21:15:00,32.6,28.6,30.32,SSE,163,4.0,5.0,85,0.00,,FEW070,0.00,VWS V14.01,2013-03-09 03:15:00,
2013-03-08 21:16:00,32.5,28.2,30.33,South,180,1.0,4.0,84,0.00,,FEW250,0.00,VWS V14.01,2013-03-09 03:16:00,
2013-03-08 21:20:00,32.7,28.7,30.32,SSE,154,3.0,5.0,85,0.00,,FEW070,0.00,VWS V14.01,2013-03-09 03:20:00,
2013-03-08 21:21:00,32.6,28.3,30.33,South,180,0.0,0.0,84,0.00,,FEW250,0.00,VWS V14.01,2013-03-09 03:21:00,
2013-03-08 21:25:00,32.7,28.7,30.31,SSE,157,4.0,5.0,85,0.00,,FEW070,0.00,VWS V14.01,2013-03-09 03:25:00,
2013-03-08 21:26:00,32.6,28.3,30.33,South,180,0.0,3.0,84,0.00,,FEW250,0.00,VWS V14.01,2013-03-09 03:26:00,
2013-03-08 21:30:00,32.8,28.5,30.32,SSE,159,4.0,7.0,84,0.00,,FEW070,0.00,VWS V14.01,2013-03-09 03:30:00,
2013-03-08 21:31:00,32.6,28.3,30.33,South,180,0.0,0.0,84,0.00,,FEW250,0.00,VWS V14.01,2013-03-09 03:31:00,
2013-03-08 21:35:00,32.8,28.5,30.31,SE,144,2.0,5.0,84,0.00,,FEW070,0.00,VWS V14.01,2013-03-09 03:35:00,
2013-03-08 21:36:00,32.6,28.3,30.33,SSE,167,0.0,5.0,84,0.00,,FEW250,0.00,VWS V14.01,2013-03-09 03:36:00,
2013-03-08 21:40:00,32.8,28.5,30.31,SSE,165,2.0,5.0,84,0.00,,FEW070,0.00,VWS V14.01,2013-03-09 03:40:00,
2013-03-08 21:41:00,32.6,28.6,30.33,SSE,150,1.0,3.0,85,0.00,,FEW250,0.00,VWS V14.01,2013-03-09 03:41:00,
2013-03-08 21:45:00,32.8,28.2,30.31,South,173,2.0,5.0,83,0.00,,FEW070,0.00,VWS V14.01,2013-03-09 03:45:00,
2013-03-08 21:46:00,32.7,28.7,30.32,SE,142,0.0,4.0,85,0.00,,FEW250,0.00,VWS V14.01,2013-03-09 03:46:00,
2013-03-08 21:50:00,32.8,27.9,30.31,SSE,150,2.0,5.0,82,0.00,,FEW070,0.00,VWS V14.01,2013-03-09 03:50:00,
2013-03-08 21:51:00,32.7,28.7,30.32,SE,140,0.0,0.0,85,0.00,,FEW250,0.00,VWS V14.01,2013-03-09 03:51:00,
2013-03-08 21:55:00,32.8,27.9,30.30,SSE,166,3.0,5.0,82,0.00,,FEW070,0.00,VWS V14.01,2013-03-09 03:55:00,
2013-03-08 21:56:00,32.7,28.7,30.32,SE,134,0.0,3.0,85,0.00,,FEW250,0.00,VWS V14.01,2013-03-09 03:56:00,
2013-03-08 22:00:00,32.8,27.6,30.30,South,178,4.0,5.0,81,0.00,,FEW070,0.00,VWS V14.01,2013-03-09 04:00:00,
2013-03-08 22:01:00,32.6,28.9,30.32,SE,134,0.0,0.0,86,0.00,,FEW250,0.00,VWS V14.01,2013-03-09 04:01:00,
2013-03-08 22:05:00,32.7,27.5,30.30,SSE,158,2.0,5.0,81,0.00,,FEW070,0.00,VWS V14.01,2013-03-09 04:05:00,
2013-03-08 22:06:00,32.6,28.9,30.32,SE,134,1.0,3.0,86,0.00,,FEW250,0.00,VWS V14.01,2013-03-09 04:06:00,
2013-03-08 22:10:00,32.6,27.4,30.30,SSE,157,3.0,4.0,81,0.00,,FEW070,0.00,VWS V14.01,2013-03-09 04:10:00,
2013-03-08 22:11:00,32.6,28.9,30.32,SE,132,0.0,4.0,86,0.00,,FEW250,0.00,VWS V14.01,2013-03-09 04:11:00,
2013-03-08 22:15:00,32.7,27.2,30.30,SSE,163,0.0,4.0,80,0.00,,FEW070,0.00,VWS V14.01,2013-03-09 04:15:00,
2013-03-08 22:16:00,32.7,28.7,30.32,SSE,157,3.0,5.0,85,0.00,,FEW250,0.00,VWS V14.01,2013-03-09 04:16:00,
2013-03-08 22:20:00,32.8,27.3,30.29,SSE,159,3.0,6.0,80,0.00,,FEW070,0.00,VWS V14.01,2013-03-09 04:20:00,
2013-03-08 22:21:00,32.7,28.7,30.31,SSE,158,0.0,5.0,85,0.00,,FEW250,0.00,VWS V14.01,2013-03-09 04:21:00,
2013-03-08 22:25:00,32.8,27.3,30.29,SSE,154,0.0,4.0,80,0.00,,FEW070,0.00,VWS V14.01,2013-03-09 04:25:00,
2013-03-08 22:26:00,32.8,28.5,30.31,SSE,158,3.0,6.0,84,0.00,,FEW250,0.00,VWS V14.01,2013-03-09 04:26:00,
2013-03-08 22:30:00,32.8,27.0,30.29,SSE,160,1.0,4.0,79,0.00,,FEW070,0.00,VWS V14.01,2013-03-09 04:30:00,
2013-03-08 22:31:00,32.8,28.5,30.31,South,173,3.0,7.0,84,0.00,,FEW250,0.00,VWS V14.01,2013-03-09 04:31:00,
2013-03-08 22:35:00,32.9,27.1,30.29,SSE,166,0.0,4.0,79,0.00,,FEW070,0.00,VWS V14.01,2013-03-09 04:35:00,
2013-03-08 22:36:00,32.8,28.5,30.31,SSE,160,0.0,6.0,84,0.00,,FEW250,0.00,VWS V14.01,2013-03-09 04:36:00,
2013-03-08 22:40:00,32.9,27.1,30.28,SSE,165,0.0,0.0,79,0.00,,FEW070,0.00,VWS V14.01,2013-03-09 04:40:00,
2013-03-08 22:42:00,32.8,28.2,30.31,South,174,1.0,7.0,83,0.00,,FEW250,0.00,VWS V14.01,2013-03-09 04:42:00,
2013-03-08 22:45:00,32.8,27.0,30.28,SSE,165,0.0,0.0,79,0.00,,FEW070,0.00,VWS V14.01,2013-03-09 04:45:00,
2013-03-08 22:47:00,32.8,28.2,30.31,South,175,2.0,5.0,83,0.00,,FEW250,0.00,VWS V14.01,2013-03-09 04:47:00,
2013-03-08 22:50:00,32.8,27.3,30.28,SE,132,0.0,3.0,80,0.00,,FEW070,0.00,VWS V14.01,2013-03-09 04:50:00,
2013-03-08 22:52:00,32.8,27.9,30.30,SSE,167,0.0,5.0,82,0.00,,FEW250,0.00,VWS V14.01,2013-03-09 04:52:00,
2013-03-08 22:55:00,32.9,27.4,30.27,SSE,155,0.0,6.0,80,0.00,,FEW070,0.00,VWS V14.01,2013-03-09 04:55:00,
2013-03-08 22:57:00,32.8,27.9,30.30,South,178,3.0,5.0,82,0.00,,FEW250,0.00,VWS V14.01,2013-03-09 04:57:00,
2013-03-08 23:00:00,32.8,27.6,30.30,South,178,1.0,5.0,81,0.00,,FEW250,0.00,VWS V14.01,2013-03-09 05:00:00,
2013-03-08 23:01:00,32.7,27.5,30.30,South,173,2.0,5.0,81,0.00,,FEW250,0.00,VWS V14.01,2013-03-09 05:01:00,
2013-03-08 23:05:00,32.7,27.5,30.30,SSE,158,0.0,4.0,81,0.00,,FEW250,0.00,VWS V14.01,2013-03-09 05:05:00,
2013-03-08 23:06:00,32.7,27.5,30.30,SSE,158,1.0,4.0,81,0.00,,FEW250,0.00,VWS V14.01,2013-03-09 05:06:00,
2013-03-08 23:10:00,32.8,27.6,30.27,SE,140,0.0,3.0,81,0.00,,FEW070,0.00,VWS V14.01,2013-03-09 05:10:00,
2013-03-08 23:11:00,32.7,27.5,30.30,SSE,155,0.0,5.0,81,0.00,,FEW250,0.00,VWS V14.01,2013-03-09 05:11:00,
2013-03-08 23:15:00,32.9,27.7,30.27,SSE,154,3.0,5.0,81,0.00,,FEW070,0.00,VWS V14.01,2013-03-09 05:15:00,
2013-03-08 23:16:00,32.7,27.2,30.30,South,170,4.0,5.0,80,0.00,,FEW250,0.00,VWS V14.01,2013-03-09 05:16:00,
2013-03-08 23:20:00,32.9,27.7,30.27,SSE,159,0.0,5.0,81,0.00,,FEW070,0.00,VWS V14.01,2013-03-09 05:20:00,
2013-03-08 23:21:00,32.8,27.3,30.29,SSE,155,2.0,4.0,80,0.00,,FEW250,0.00,VWS V14.01,2013-03-09 05:21:00,
2013-03-08 23:25:00,32.9,28.0,30.27,South,176,4.0,8.0,82,0.00,,FEW070,0.00,VWS V14.01,2013-03-09 05:25:00,
2013-03-08 23:26:00,32.8,27.0,30.29,SSE,162,2.0,4.0,79,0.00,,FEW250,0.00,VWS V14.01,2013-03-09 05:26:00,
2013-03-08 23:30:00,33.0,28.4,30.27,SSE,163,2.0,9.0,83,0.00,,FEW070,0.00,VWS V14.01,2013-03-09 05:30:00,
2013-03-08 23:31:00,32.8,27.0,30.29,SSE,159,0.0,5.0,79,0.00,,FEW250,0.00,VWS V14.01,2013-03-09 05:31:00,
2013-03-08 23:35:00,33.0,28.7,30.26,South,178,2.0,7.0,84,0.00,,FEW070,0.00,VWS V14.01,2013-03-09 05:35:00,
2013-03-08 23:36:00,32.9,27.1,30.28,SSE,165,0.0,0.0,79,0.00,,FEW250,0.00,VWS V14.01,2013-03-09 05:36:00,
2013-03-08 23:40:00,33.0,29.0,30.26,SE,127,5.0,8.0,85,0.00,,FEW070,0.00,VWS V14.01,2013-03-09 05:40:00,
2013-03-08 23:41:00,32.9,27.1,30.28,SSE,165,0.0,0.0,79,0.00,,FEW250,0.00,VWS V14.01,2013-03-09 05:41:00,
2013-03-08 23:45:00,33.0,29.0,30.26,South,174,6.0,9.0,85,0.00,,FEW070,0.00,VWS V14.01,2013-03-09 05:45:00,
2013-03-08 23:46:00,32.8,27.3,30.28,SSE,152,0.0,0.0,80,0.00,,FEW250,0.00,VWS V14.01,2013-03-09 05:46:00,
2013-03-08 23:50:00,32.9,29.2,30.26,SSW,197,7.0,8.0,86,0.00,,FEW070,0.00,VWS V14.01,2013-03-09 05:50:00,
2013-03-08 23:51:00,32.8,27.3,30.27,SSE,166,0.0,6.0,80,0.00,,FEW250,0.00,VWS V14.01,2013-03-09 05:51:00,
2013-03-08 23:55:00,32.8,29.1,30.26,South,180,0.0,7.0,86,0.00,,FEW070,0.00,VWS V14.01,2013-03-09 05:55:00,
2013-03-08 23:56:00,32.9,27.4,30.27,SSE,148,3.0,5.0,80,0.00,,FEW250,0.00,VWS V14.01,2013-03-09 05:56:00,